Time;durP1;ratioP1;P1;durP2;ratioP2;P2;SDS_P1;SDS_P2;PMS_P1;PMS_P2;Temp;Humidity;BMP_temperature;BMP_pressure;BME280_temperature;BME280_humidity;BME280_pressure;Samples;Min_cycle;Max_cycle;Signal;HPM_P1;HPM_P2
2023/08/14 00:00:09;;;;;;;10.57;7.50;;;;;;;-141.97;44.51;47386.47;4996253;28;20252;-82
2023/08/14 00:02:34;;;;;;;12.00;8.53;;;;;;;-141.97;44.83;47361.47;5014421;28;20187;-82
2023/08/14 00:05:00;;;;;;;14.17;9.77;;;;;;;-141.97;45.02;47403.75;5015779;28;20175;-81
2023/08/14 00:07:25;;;;;;;20.63;11.40;;;;;;;-141.97;45.14;47417.22;5013717;28;20202;-81
2023/08/14 00:09:51;;;;;;;18.00;10.93;;;;;;;-141.97;45.51;47449.88;5013653;28;20159;-81
2023/08/14 00:12:16;;;;;;;15.20;10.90;;;;;;;-141.97;45.82;47396.06;5012962;28;20209;-81
2023/08/14 00:14:41;;;;;;;13.03;10.53;;;;;;;-141.97;45.84;47426.81;5013303;28;20201;-82
2023/08/14 00:17:07;;;;;;;16.67;10.03;;;;;;;-141.97;45.78;47409.53;5007512;28;20202;-81
2023/08/14 00:19:32;;;;;;;15.67;10.03;;;;;;;-141.97;46.13;47422.97;5011847;28;20262;-81
2023/08/14 00:21:58;;;;;;;13.23;9.73;;;;;;;-141.97;46.28;47363.41;5012004;28;20312;-81
2023/08/14 00:24:23;;;;;;;15.70;10.10;;;;;;;-141.97;46.47;47426.81;5012114;28;20241;-81
2023/08/14 00:26:48;;;;;;;14.13;9.63;;;;;;;-141.97;46.67;47434.50;5011691;28;20314;-80
2023/08/14 00:29:14;;;;;;;12.20;9.57;;;;;;;-141.97;46.76;47403.75;5012023;28;20612;-83
2023/08/14 00:31:39;;;;;;;13.20;9.53;;;;;;;-141.97;46.96;47428.75;5012216;28;20166;-81
2023/08/14 00:34:04;;;;;;;11.80;9.43;;;;;;;-141.97;47.03;47411.44;5016933;28;20233;-81
2023/08/14 00:36:30;;;;;;;12.40;9.10;;;;;;;-141.97;47.02;47378.78;5009044;28;20198;-81
2023/08/14 00:38:55;;;;;;;14.87;9.40;;;;;;;-141.97;47.01;47438.34;5014962;28;20261;-80
2023/08/14 00:41:21;;;;;;;12.57;8.70;;;;;;;-141.97;47.02;47426.81;5017488;28;20226;-78
2023/08/14 00:43:46;;;;;;;11.97;8.83;;;;;;;-141.97;47.39;47449.88;5029068;28;20163;-80
2023/08/14 00:46:12;;;;;;;16.33;11.23;;;;;;;-141.97;48.35;47357.63;5017494;28;20528;-80
2023/08/14 00:48:38;;;;;;;15.47;10.50;;;;;;;-141.97;49.65;47434.50;5011789;28;20310;-82
2023/08/14 00:51:04;;;;;;;13.37;10.83;;;;;;;-141.97;50.41;47407.59;4993874;28;20213;-81
2023/08/14 00:53:30;;;;;;;13.90;10.80;;;;;;;-141.97;51.35;47474.88;5006945;28;20249;-82
2023/08/14 00:55:57;;;;;;;18.17;11.10;;;;;;;-141.97;51.73;47409.53;5011460;28;20182;-82
2023/08/14 00:58:23;;;;;;;14.50;11.17;;;;;;;-141.97;51.99;47432.59;5010961;28;20175;-82
2023/08/14 01:00:49;;;;;;;13.23;10.73;;;;;;;-141.97;51.85;47451.81;5011296;28;20222;-80
2023/08/14 01:03:16;;;;;;;15.73;10.80;;;;;;;-141.97;51.55;47490.25;5011029;28;20159;-80
2023/08/14 01:05:41;;;;;;;15.97;10.77;;;;;;;-141.97;51.52;47407.59;5010337;28;20196;-80
2023/08/14 01:08:07;;;;;;;14.27;10.93;;;;;;;-141.97;51.44;47430.66;5011180;28;20666;-80
2023/08/14 01:10:59;;;;;;;15.43;10.57;;;;;;;-141.97;51.53;47471.03;5010793;28;20864;-81
2023/08/14 01:13:43;;;;;;;15.23;10.83;;;;;;;-141.97;51.55;47415.28;4930679;29;20271;-80
2023/08/14 01:16:23;;;;;;;13.40;10.20;;;;;;;-141.97;51.47;47382.63;4930650;29;20211;-81
2023/08/14 01:18:51;;;;;;;15.73;10.70;;;;;;;-141.97;51.15;47442.19;4931529;29;20587;-82
2023/08/14 01:21:16;;;;;;;15.37;10.40;;;;;;;-141.97;51.24;47422.97;4931300;29;20228;-82
2023/08/14 01:23:55;;;;;;;13.03;9.90;;;;;;;-141.97;51.79;47447.97;4930155;29;20220;-82
2023/08/14 01:26:22;;;;;;;14.80;9.97;;;;;;;-141.97;52.58;47444.13;4922294;29;20243;-82
2023/08/14 01:28:47;;;;;;;12.93;9.53;;;;;;;-141.97;52.94;47669.00;4949249;29;20689;-80
2023/08/14 01:31:13;;;;;;;12.97;9.50;;;;;;;-141.97;52.88;47415.28;4948889;29;20347;-80
2023/08/14 01:33:38;;;;;;;12.17;8.97;;;;;;;-141.97;53.33;47557.53;4949208;28;20625;-80
2023/08/14 01:36:32;;;;;;;12.83;8.60;;;;;;;-141.97;54.16;47426.81;4942637;29;20186;-80
2023/08/14 01:39:08;;;;;;;12.50;7.90;;;;;;;-141.97;54.69;47451.81;4929974;29;20193;-80
2023/08/14 01:41:59;;;;;;;10.30;8.30;;;;;;;-141.97;55.27;47469.09;4929585;29;20193;-81
2023/08/14 01:44:26;;;;;;;17.13;8.57;;;;;;;-141.97;55.31;47451.81;4872952;29;20203;-79
2023/08/14 01:46:55;;;;;;;11.83;8.60;;;;;;;-141.97;55.58;47446.03;4873025;29;20191;-79
2023/08/14 01:49:22;;;;;;;12.30;8.47;;;;;;;-141.97;56.04;47442.19;4878261;29;20195;-79
2023/08/14 01:51:52;;;;;;;10.63;8.53;;;;;;;-141.97;56.30;47446.03;4930707;29;20161;-80
2023/08/14 01:54:18;;;;;;;12.43;8.07;;;;;;;-141.97;56.50;47446.03;4930513;29;20174;-79
2023/08/14 01:56:43;;;;;;;11.07;8.57;;;;;;;-141.97;56.79;47426.81;4930650;29;20582;-79
2023/08/14 01:59:08;;;;;;;10.53;8.20;;;;;;;-141.97;57.08;47461.41;4930498;29;20199;-79
2023/08/14 02:01:34;;;;;;;10.50;7.90;;;;;;;-141.97;56.60;47434.50;4930818;29;20228;-79
2023/08/14 02:03:59;;;;;;;12.10;8.30;;;;;;;-141.97;56.68;47444.13;4924085;29;20300;-79
2023/08/14 02:06:25;;;;;;;10.23;8.00;;;;;;;-141.97;56.60;47461.41;4928633;29;20192;-79
2023/08/14 02:08:50;;;;;;;10.80;8.07;;;;;;;-141.97;56.35;47438.34;4931546;29;20697;-79
2023/08/14 02:11:15;;;;;;;10.90;8.20;;;;;;;-141.97;56.28;47428.75;4935982;29;20181;-79
2023/08/14 02:13:41;;;;;;;11.13;8.17;;;;;;;-141.97;56.50;47430.66;4935671;29;20181;-80
2023/08/14 02:16:06;;;;;;;13.00;7.93;;;;;;;-141.97;56.71;47392.22;4935452;29;20176;-82
2023/08/14 02:18:31;;;;;;;10.63;8.50;;;;;;;-141.97;57.50;47365.31;4935815;29;20203;-79
2023/08/14 02:20:57;;;;;;;14.23;8.60;;;;;;;-141.97;58.11;47405.69;4950645;28;20294;-79
2023/08/14 02:23:22;;;;;;;10.97;8.27;;;;;;;-141.97;58.02;47417.22;5015792;28;20224;-80
2023/08/14 02:25:48;;;;;;;10.63;8.07;;;;;;;-141.97;57.83;47474.88;5015293;28;20225;-79
2023/08/14 02:28:13;;;;;;;10.77;8.07;;;;;;;-141.97;57.31;47476.78;5016127;28;20552;-80
2023/08/14 02:30:42;;;;;;;10.83;7.83;;;;;;;-141.97;57.52;47459.50;5016172;28;20193;-79
2023/08/14 02:33:09;;;;;;;10.63;7.90;;;;;;;-141.97;57.98;47469.09;5016550;28;20614;-80
2023/08/14 02:35:34;;;;;;;9.20;7.83;;;;;;;-141.97;58.66;47440.28;5016721;28;20164;-79
2023/08/14 02:38:04;;;;;;;11.03;7.77;;;;;;;-141.97;58.78;47484.47;5011986;28;20172;-80
2023/08/14 02:40:30;;;;;;;12.67;7.90;;;;;;;-141.97;58.82;47453.72;5014805;28;20293;-81
2023/08/14 02:43:00;;;;;;;9.77;7.30;;;;;;;-141.97;58.94;47465.25;5004487;28;20241;-81
2023/08/14 02:45:25;;;;;;;9.53;7.30;;;;;;;-141.97;59.01;47413.38;5015734;28;20178;-81
2023/08/14 02:47:50;;;;;;;9.80;7.10;;;;;;;-141.97;58.91;47484.47;5015826;28;20213;-81
2023/08/14 02:50:16;;;;;;;9.63;7.20;;;;;;;-141.97;58.93;47447.97;5015421;28;20683;-81
2023/08/14 02:52:41;;;;;;;10.87;7.60;;;;;;;-141.97;58.96;47661.31;5016044;28;20217;-81
2023/08/14 02:55:07;;;;;;;9.83;7.03;;;;;;;-141.97;58.50;47447.97;5015399;28;20186;-80
2023/08/14 02:57:32;;;;;;;8.83;7.37;;;;;;;-141.97;58.62;47444.13;5015625;28;20213;-80
2023/08/14 02:59:58;;;;;;;10.33;7.33;;;;;;;-141.97;58.62;47484.47;5014938;28;20543;-80
2023/08/14 03:02:23;;;;;;;11.90;7.30;;;;;;;-141.97;58.75;47430.66;5015719;28;20201;-81
2023/08/14 03:04:50;;;;;;;10.77;7.17;;;;;;;-141.97;58.90;47459.50;5018404;28;20214;-80
2023/08/14 03:07:15;;;;;;;9.83;7.40;;;;;;;-141.97;59.05;47407.59;5029764;28;20201;-80
2023/08/14 03:09:40;;;;;;;10.70;7.77;;;;;;;-141.97;59.64;47461.41;5025566;28;20179;-80
2023/08/14 03:12:06;;;;;;;10.23;7.97;;;;;;;-141.97;59.69;47446.03;5017230;28;20189;-80
2023/08/14 03:14:31;;;;;;;13.60;7.53;;;;;;;-141.97;60.52;47494.09;4998368;28;20305;-80
2023/08/14 03:16:57;;;;;;;9.33;7.47;;;;;;;-141.97;60.38;47638.25;5015836;28;20589;-80
2023/08/14 03:19:22;;;;;;;10.93;7.97;;;;;;;-141.97;59.71;47453.72;5015952;28;20167;-80
2023/08/14 03:21:50;;;;;;;12.73;7.43;;;;;;;-141.97;59.58;47453.72;5012788;28;20243;-79
2023/08/14 03:24:17;;;;;;;10.23;7.60;;;;;;;-141.97;60.08;47449.88;5012918;28;20190;-80
2023/08/14 03:26:42;;;;;;;10.23;7.40;;;;;;;-141.97;59.68;47488.31;5013196;28;20284;-82
2023/08/14 03:29:07;;;;;;;11.83;8.07;;;;;;;-141.97;59.93;47449.88;5013283;28;20583;-80
2023/08/14 03:31:34;;;;;;;11.23;7.90;;;;;;;-141.97;59.94;47453.72;5013376;28;20175;-81
2023/08/14 03:33:59;;;;;;;11.70;7.93;;;;;;;-141.97;59.73;47472.94;5013221;28;20181;-81
2023/08/14 03:36:25;;;;;;;12.13;7.67;;;;;;;-141.97;59.59;47467.19;5013027;28;20687;-81
2023/08/14 03:38:50;;;;;;;10.23;7.90;;;;;;;-141.97;59.86;47453.72;5012753;28;20670;-81
2023/08/14 03:41:15;;;;;;;10.23;8.07;;;;;;;-141.97;59.68;47561.38;5013046;28;20198;-81
2023/08/14 03:43:41;;;;;;;18.80;8.10;;;;;;;-141.97;59.66;47401.84;4995279;28;20226;-80
2023/08/14 03:46:06;;;;;;;12.10;8.50;;;;;;;-141.97;59.54;47451.81;5012035;28;20229;-80
2023/08/14 03:48:31;;;;;;;14.03;8.50;;;;;;;-141.97;59.31;47469.09;5011585;28;20186;-81
2023/08/14 03:50:57;;;;;;;66.37;11.17;;;;;;;-141.97;59.19;47401.84;5011351;28;20274;-80
2023/08/14 03:53:22;;;;;;;19.63;9.60;;;;;;;-141.97;58.94;47465.25;5011564;28;20850;-81
2023/08/14 03:55:48;;;;;;;17.23;7.87;;;;;;;-141.97;58.99;47440.28;5011537;28;20213;-82
2023/08/14 03:58:14;;;;;;;25.30;8.10;;;;;;;-141.97;59.60;47457.56;5012352;28;20563;-81
2023/08/14 04:00:39;;;;;;;18.93;8.37;;;;;;;-141.97;60.30;47455.66;5012030;28;20249;-81
2023/08/14 04:03:04;;;;;;;24.53;8.63;;;;;;;-141.97;60.07;47474.88;4994381;28;20611;-82
2023/08/14 04:05:30;;;;;;;25.20;8.90;;;;;;;-141.97;59.97;47449.88;5011938;28;20170;-82
2023/08/14 04:07:55;;;;;;;20.37;7.93;;;;;;;-141.97;59.98;47467.19;5012216;28;20253;-81
2023/08/14 04:10:21;;;;;;;21.60;7.70;;;;;;;-141.97;59.60;47461.41;5012594;28;20167;-82
2023/08/14 04:12:46;;;;;;;18.27;7.57;;;;;;;-141.97;59.69;47488.31;5013473;28;20208;-80
2023/08/14 04:15:16;;;;;;;18.13;8.20;;;;;;;-141.97;59.02;47434.50;5017559;28;20223;-79
2023/08/14 04:17:42;;;;;;;13.77;8.10;;;;;;;-141.97;58.49;47455.66;5019946;28;20253;-79
2023/08/14 04:20:09;;;;;;;13.03;8.23;;;;;;;-141.97;57.82;47438.34;5018560;28;20182;-79
2023/08/14 04:22:35;;;;;;;11.90;8.57;;;;;;;-141.97;57.76;47467.19;5016499;28;20187;-80
2023/08/14 04:25:00;;;;;;;17.03;8.90;;;;;;;-141.97;57.52;47484.47;5011168;28;20236;-80
2023/08/14 04:27:25;;;;;;;12.73;8.00;;;;;;;-141.97;58.15;47476.78;5011058;28;20301;-80
2023/08/14 04:29:51;;;;;;;12.70;8.27;;;;;;;-141.97;58.33;47438.34;5011499;28;20310;-80
2023/08/14 04:32:16;;;;;;;13.43;8.20;;;;;;;-141.97;58.68;47457.56;5010771;28;20272;-79
2023/08/14 04:34:42;;;;;;;15.53;8.33;;;;;;;-141.97;58.62;47440.28;5010488;28;20202;-80
2023/08/14 04:37:07;;;;;;;14.20;8.20;;;;;;;-141.97;58.31;47438.34;5010937;28;20190;-80
2023/08/14 04:39:33;;;;;;;14.27;8.20;;;;;;;-141.97;57.76;47446.03;5011562;28;20194;-80
2023/08/14 04:41:58;;;;;;;18.13;7.83;;;;;;;-141.97;57.75;47457.56;4985154;28;20256;-79
2023/08/14 04:44:23;;;;;;;15.87;8.47;;;;;;;-141.97;57.71;47449.88;5010540;28;20179;-79
2023/08/14 04:46:51;;;;;;;16.17;8.20;;;;;;;-141.97;57.34;47446.03;5011008;28;20487;-80
2023/08/14 04:49:16;;;;;;;13.63;7.80;;;;;;;-141.97;57.24;47432.59;5010872;28;20166;-78
2023/08/14 04:51:41;;;;;;;10.07;7.87;;;;;;;-141.97;56.92;47472.94;5010147;28;20185;-79
2023/08/14 04:54:07;;;;;;;12.30;8.37;;;;;;;-141.97;56.27;47499.84;5010414;28;20199;-78
2023/08/14 04:56:32;;;;;;;11.17;8.07;;;;;;;-141.97;56.75;47461.41;5011015;28;20579;-79
2023/08/14 04:58:58;;;;;;;13.77;8.13;;;;;;;-141.97;57.17;47453.72;5010840;28;20155;-79
2023/08/14 05:01:23;;;;;;;11.20;7.80;;;;;;;-141.97;57.20;47442.19;5010829;28;20219;-80
2023/08/14 05:03:49;;;;;;;13.87;8.17;;;;;;;-141.97;57.19;47447.97;5010591;28;20183;-79
2023/08/14 05:06:14;;;;;;;12.33;8.17;;;;;;;-141.97;57.32;47401.84;5009027;28;20261;-79
2023/08/14 05:08:40;;;;;;;14.20;7.70;;;;;;;-141.97;56.47;47348.03;5010384;28;20221;-79
2023/08/14 05:11:06;;;;;;;13.30;8.23;;;;;;;-141.97;56.10;47394.16;5010498;28;20233;-81
2023/08/14 05:13:31;;;;;;;13.60;7.73;;;;;;;-141.97;55.74;47469.09;4992749;28;20224;-81
2023/08/14 05:15:57;;;;;;;12.90;8.40;;;;;;;-141.97;55.48;47478.72;5010039;28;20179;-80
2023/08/14 05:18:22;;;;;;;9.27;7.53;;;;;;;-141.97;55.67;47428.75;5010080;28;20204;-80
2023/08/14 05:20:49;;;;;;;11.80;7.80;;;;;;;-141.97;56.45;47463.34;4992410;28;20228;-80
2023/08/14 05:23:15;;;;;;;13.07;8.10;;;;;;;-141.97;55.64;47453.72;5010224;28;20225;-81
2023/08/14 05:25:44;;;;;;;12.53;7.77;;;;;;;-141.97;54.71;47438.34;5009662;28;20291;-80
2023/08/14 05:28:10;;;;;;;13.73;7.33;;;;;;;-141.97;54.83;47449.88;5010493;28;20587;-80
2023/08/14 05:30:36;;;;;;;10.90;7.03;;;;;;;-141.97;54.51;47478.72;5012997;28;20178;-79
2023/08/14 05:33:03;;;;;;;11.20;6.83;;;;;;;-141.97;54.24;47407.59;5023867;28;20185;-79
2023/08/14 05:35:29;;;;;;;17.10;7.60;;;;;;;-141.97;52.86;47363.41;5011205;28;20166;-81
2023/08/14 05:37:56;;;;;;;15.23;8.60;;;;;;;-141.97;52.63;47442.19;5009856;28;20653;-80
2023/08/14 05:40:25;;;;;;;13.23;7.43;;;;;;;-141.97;52.03;47453.72;5010164;28;20174;-80
2023/08/14 05:43:07;;;;;;;10.37;7.40;;;;;;;-141.97;51.93;47426.81;5001137;28;20230;-83
2023/08/14 05:45:34;;;;;;;10.63;8.40;;;;;;;-141.97;51.78;47453.72;4991898;28;20189;-84
2023/08/14 05:48:05;;;;;;;14.30;8.00;;;;;;;-141.97;51.82;47597.88;5010893;28;20166;-84
2023/08/14 05:50:31;;;;;;;14.87;7.30;;;;;;;-141.97;51.31;47446.03;4992889;28;20224;-83
2023/08/14 05:53:00;;;;;;;22.63;18.23;;;;;;;-141.97;50.83;47442.19;5010260;28;20178;-83
2023/08/14 05:55:26;;;;;;;12.63;8.63;;;;;;;-141.97;50.41;47442.19;5013983;28;20193;-83
2023/08/14 05:57:52;;;;;;;12.67;8.00;;;;;;;-141.97;49.60;47422.97;4995414;28;20182;-80
2023/08/14 06:00:18;;;;;;;10.70;6.80;;;;;;;-141.97;49.55;47449.88;5010718;28;20416;-80
2023/08/14 06:02:44;;;;;;;8.90;6.40;;;;;;;-141.97;49.24;47432.59;5015956;28;20175;-80
2023/08/14 06:05:10;;;;;;;8.33;6.37;;;;;;;-141.97;48.33;47411.44;5010904;28;20244;-80
2023/08/14 06:07:35;;;;;;;10.93;6.80;;;;;;;-141.97;47.18;47392.22;5009824;28;20471;-80
2023/08/14 06:10:03;;;;;;;11.00;6.70;;;;;;;-141.97;46.84;47534.44;5009366;28;20159;-80
2023/08/14 06:12:29;;;;;;;8.13;6.03;;;;;;;-141.97;46.94;47430.66;5009788;28;20270;-80
2023/08/14 06:14:55;;;;;;;8.63;6.07;;;;;;;-141.97;47.17;47482.56;5009035;28;20253;-79
2023/08/14 06:17:20;;;;;;;7.30;6.10;;;;;;;-141.97;46.31;47384.53;5009253;28;20166;-80
2023/08/14 06:19:46;;;;;;;7.23;5.30;;;;;;;-141.97;45.21;47446.03;5008895;28;20186;-79
2023/08/14 06:22:11;;;;;;;9.47;6.10;;;;;;;-141.97;44.93;47392.22;5009016;28;20217;-79
2023/08/14 06:24:36;;;;;;;8.50;5.80;;;;;;;-141.97;44.65;47409.53;5008830;28;20298;-81
2023/08/14 06:27:02;;;;;;;8.57;5.83;;;;;;;-141.97;44.80;47438.34;5007868;28;20231;-79
2023/08/14 06:29:27;;;;;;;8.47;5.90;;;;;;;-141.97;45.05;47399.91;5009118;28;20174;-80
2023/08/14 06:31:53;;;;;;;8.27;5.67;;;;;;;-141.97;44.54;47373.00;5008957;28;20315;-80
2023/08/14 06:34:19;;;;;;;7.23;5.70;;;;;;;-141.97;44.65;47403.75;5008765;28;20500;-79
2023/08/14 06:36:44;;;;;;;8.83;5.63;;;;;;;-141.97;44.30;47398.00;5008834;28;20206;-79
2023/08/14 06:39:09;;;;;;;8.30;5.83;;;;;;;-141.97;43.47;47384.53;5008399;28;20183;-81
2023/08/14 06:41:35;;;;;;;7.33;6.00;;;;;;;-141.97;41.82;47490.25;5008346;28;20206;-80
2023/08/14 06:44:00;;;;;;;8.27;5.80;;;;;;;-141.97;41.78;47388.38;4999852;28;20238;-80
2023/08/14 06:46:25;;;;;;;7.77;5.90;;;;;;;-141.97;42.09;47378.78;5008898;28;20694;-80
2023/08/14 06:48:51;;;;;;;7.33;6.30;;;;;;;-141.97;42.20;47396.06;5008750;28;20182;-81
2023/08/14 06:51:16;;;;;;;6.73;5.63;;;;;;;-141.97;42.04;47334.56;5009017;28;20238;-80
2023/08/14 06:53:42;;;;;;;11.00;6.30;;;;;;;-141.97;42.04;47365.31;5008623;28;20913;-80
2023/08/14 06:56:07;;;;;;;6.10;5.13;;;;;;;-141.97;41.75;47380.69;5011609;28;20585;-81
2023/08/14 06:58:32;;;;;;;12.63;6.00;;;;;;;-141.97;41.01;47361.47;5012377;28;20329;-81
2023/08/14 07:00:58;;;;;;;8.85;5.80;;;;;;;-141.97;41.38;47380.69;5012372;28;20272;-81
2023/08/14 07:03:24;;;;;;;11.40;6.13;;;;;;;-141.97;41.10;47334.56;5012789;28;20631;-81
2023/08/14 07:05:49;;;;;;;10.80;7.55;;;;;;;-141.97;40.60;47346.09;5012846;28;20176;-80
2023/08/14 07:08:15;;;;;;;10.57;7.15;;;;;;;-141.97;39.98;47378.78;5012475;28;20209;-78
2023/08/14 07:10:40;;;;;;;10.00;6.47;;;;;;;-141.97;39.53;47361.47;5012640;28;20181;-81
2023/08/14 07:13:08;;;;;;;11.43;7.15;;;;;;;-141.97;40.03;47349.94;5013205;28;20164;-81
2023/08/14 07:15:34;;;;;;;9.63;6.60;;;;;;;-141.97;39.50;47390.31;5013788;28;20245;-81
2023/08/14 07:17:59;;;;;;;6.00;5.32;;;;;;;-141.97;39.06;47376.84;5013225;28;20254;-81
2023/08/14 07:20:26;;;;;;;6.63;4.97;;;;;;;-141.97;39.07;47348.03;5012918;28;20173;-80
2023/08/14 07:22:52;;;;;;;8.07;5.45;;;;;;;-141.97;38.35;47336.50;5012846;28;20168;-81
2023/08/14 07:25:17;;;;;;;6.90;5.30;;;;;;;-141.97;37.80;47326.88;5011683;28;20188;-82
2023/08/14 07:27:43;;;;;;;6.10;4.80;;;;;;;-141.97;37.13;47340.34;5011841;28;20271;-81
2023/08/14 07:30:09;;;;;;;11.23;5.25;;;;;;;-141.97;37.28;47326.88;5012297;28;20196;-80
2023/08/14 07:32:35;;;;;;;7.10;4.80;;;;;;;-141.97;36.62;47349.94;5011844;28;20295;-80
2023/08/14 07:35:00;;;;;;;6.72;5.20;;;;;;;-141.97;36.82;47569.06;5011912;28;20638;-81
2023/08/14 07:37:25;;;;;;;5.82;4.75;;;;;;;-141.97;36.32;47278.84;5011553;28;20177;-81
2023/08/14 07:39:51;;;;;;;6.70;4.85;;;;;;;-141.97;36.30;47353.78;5012012;28;20214;-80
2023/08/14 07:42:16;;;;;;;6.38;4.97;;;;;;;-141.97;35.81;47340.34;5011607;28;20204;-81
2023/08/14 07:44:42;;;;;;;5.93;5.00;;;;;;;-141.97;35.32;47332.66;5002569;28;20648;-82
2023/08/14 07:47:07;;;;;;;5.38;4.88;;;;;;;-141.97;36.15;47340.34;5012992;28;20248;-81
2023/08/14 07:49:33;;;;;;;7.00;4.88;;;;;;;-141.97;36.13;47319.19;5022326;28;20197;-81
2023/08/14 07:51:59;;;;;;;6.05;5.30;;;;;;;-141.97;35.75;47338.41;5033737;28;20236;-81
2023/08/14 07:54:24;;;;;;;5.55;4.60;;;;;;;-141.97;35.46;47336.50;5019656;28;20642;-80
2023/08/14 07:56:52;;;;;;;6.45;5.13;;;;;;;-141.97;35.14;47365.31;5021811;28;20170;-81
2023/08/14 07:59:18;;;;;;;5.30;4.70;;;;;;;-141.97;35.63;47317.28;5018759;28;20285;-80
2023/08/14 08:01:44;;;;;;;5.25;4.57;;;;;;;-141.97;35.78;47332.66;5012275;28;20220;-81
2023/08/14 08:04:09;;;;;;;6.45;5.28;;;;;;;-141.97;36.03;47353.78;5012204;28;20272;-80
2023/08/14 08:06:35;;;;;;;6.13;4.90;;;;;;;-141.97;36.50;47365.31;5011739;28;20200;-81
2023/08/14 08:09:00;;;;;;;7.45;4.85;;;;;;;-141.97;35.56;47315.34;5011580;28;20176;-81
2023/08/14 08:11:26;;;;;;;6.20;5.20;;;;;;;-141.97;35.50;47349.94;5011250;28;20191;-81
2023/08/14 08:13:51;;;;;;;6.78;4.93;;;;;;;-141.97;34.38;47276.91;5011485;28;20171;-81
2023/08/14 08:16:17;;;;;;;7.72;5.00;;;;;;;-141.97;33.63;47309.59;5012720;28;20178;-82
2023/08/14 08:18:42;;;;;;;8.65;4.80;;;;;;;-141.97;33.81;47311.50;4994481;28;20616;-82
2023/08/14 08:21:08;;;;;;;5.55;4.90;;;;;;;-141.97;33.66;47299.97;5012105;28;20207;-81
2023/08/14 08:23:33;;;;;;;7.55;4.80;;;;;;;-141.97;33.54;47342.25;4994332;28;20279;-81
2023/08/14 08:25:59;;;;;;;7.40;4.25;;;;;;;-141.97;33.18;47315.34;5012533;28;20229;-81
2023/08/14 08:28:24;;;;;;;6.70;4.90;;;;;;;-141.97;33.52;47284.59;5011364;28;20181;-80
2023/08/14 08:30:49;;;;;;;7.22;4.75;;;;;;;-141.97;34.73;47311.50;5011735;28;20654;-80
2023/08/14 08:33:15;;;;;;;6.25;4.63;;;;;;;-141.97;34.84;47311.50;5011750;28;20235;-80
2023/08/14 08:35:40;;;;;;;9.55;6.38;;;;;;;-141.97;34.13;47336.50;5012047;28;20660;-81
2023/08/14 08:38:06;;;;;;;8.63;5.07;;;;;;;-141.97;35.01;47290.38;5011587;28;20175;-81
2023/08/14 08:40:32;;;;;;;5.80;4.93;;;;;;;-141.97;35.36;47349.94;5011969;28;20169;-80
2023/08/14 08:43:01;;;;;;;6.28;5.00;;;;;;;-141.97;35.50;47338.41;4984610;28;20692;-82
2023/08/14 08:45:34;;;;;;;10.20;5.25;;;;;;;-141.97;35.18;47323.03;5011657;28;20613;-82
2023/08/14 08:48:02;;;;;;;6.97;4.72;;;;;;;-141.97;34.27;47288.44;5011352;28;20253;-80
2023/08/14 08:50:31;;;;;;;7.30;5.10;;;;;;;-141.97;33.85;47349.94;5011748;28;20213;-81
2023/08/14 08:52:57;;;;;;;6.22;5.05;;;;;;;-141.97;33.72;47246.16;5011812;28;20169;-81
2023/08/14 08:55:23;;;;;;;6.88;5.18;;;;;;;-141.97;33.97;47286.53;5011594;28;20163;-81
2023/08/14 08:57:49;;;;;;;15.52;4.90;;;;;;;-141.97;33.47;47309.59;5011448;28;20173;-79
2023/08/14 09:00:15;;;;;;;6.32;4.70;;;;;;;-141.97;33.96;47342.25;5011719;28;20272;-80
2023/08/14 09:02:41;;;;;;;5.88;4.43;;;;;;;-141.97;33.32;47298.06;5011474;28;20198;-80
2023/08/14 09:05:06;;;;;;;5.00;4.50;;;;;;;-141.97;32.83;47315.34;5011768;28;20196;-81
2023/08/14 09:07:33;;;;;;;5.75;4.60;;;;;;;-141.97;32.86;47326.88;5011731;28;20164;-80
2023/08/14 09:09:58;;;;;;;6.38;4.90;;;;;;;-141.97;32.83;47294.22;5011392;28;20165;-80
2023/08/14 09:12:24;;;;;;;5.97;4.38;;;;;;;-141.97;32.63;47315.34;5011116;28;20185;-82
2023/08/14 09:15:06;;;;;;;6.22;4.90;;;;;;;-141.97;32.39;47251.94;5012640;28;20157;-80
2023/08/14 09:17:33;;;;;;;7.40;4.70;;;;;;;-141.97;32.44;47301.91;5012814;28;20882;-81
2023/08/14 09:19:58;;;;;;;7.32;4.65;;;;;;;-141.97;31.75;47299.97;5013142;28;20181;-80
2023/08/14 09:22:27;;;;;;;6.50;4.65;;;;;;;-141.97;31.32;47282.69;5013135;28;20194;-79
2023/08/14 09:24:54;;;;;;;6.25;4.53;;;;;;;-141.97;31.05;47261.53;5011258;28;20293;-84
2023/08/14 09:27:20;;;;;;;5.72;4.38;;;;;;;-141.97;31.00;47278.84;5012595;28;20230;-82
2023/08/14 09:29:46;;;;;;;8.27;4.50;;;;;;;-141.97;31.02;47225.03;5012710;28;20178;-83
2023/08/14 09:32:11;;;;;;;6.20;4.47;;;;;;;-141.97;31.44;47273.06;5012100;28;20221;-83
2023/08/14 09:34:37;;;;;;;6.88;4.65;;;;;;;-141.97;32.09;47294.22;5012088;28;20195;-82
2023/08/14 09:37:04;;;;;;;7.05;4.65;;;;;;;-141.97;31.96;47246.16;5011531;28;20269;-83
2023/08/14 09:39:29;;;;;;;7.35;4.95;;;;;;;-141.97;32.01;47307.66;5011219;28;20263;-83
2023/08/14 09:41:55;;;;;;;5.43;4.40;;;;;;;-141.97;32.30;47238.47;5011326;28;20203;-83
2023/08/14 09:44:23;;;;;;;5.95;4.75;;;;;;;-141.97;31.73;47288.44;5015481;28;20267;-83
2023/08/14 09:46:54;;;;;;;5.97;4.70;;;;;;;-141.97;31.67;47284.59;5031286;28;20169;-83
2023/08/14 09:49:20;;;;;;;8.05;5.03;;;;;;;-141.97;31.18;47276.91;4998629;28;20216;-83
2023/08/14 09:52:06;;;;;;;6.32;4.55;;;;;;;-141.97;31.19;47273.06;5011494;28;20248;-83
2023/08/14 09:54:33;;;;;;;5.63;4.35;;;;;;;-141.97;31.64;47292.28;5011925;28;20535;-82
2023/08/14 09:56:59;;;;;;;6.35;4.50;;;;;;;-141.97;31.15;47273.06;5011347;28;20203;-82
2023/08/14 09:59:26;;;;;;;7.35;4.65;;;;;;;-141.97;30.72;47248.09;5010651;28;20278;-84
2023/08/14 10:01:53;;;;;;;8.05;4.75;;;;;;;-141.97;30.75;47244.25;5011689;28;20202;-81
2023/08/14 10:04:22;;;;;;;5.47;4.30;;;;;;;-141.97;30.16;47188.50;4994866;28;20286;-84
2023/08/14 10:06:48;;;;;;;4.90;4.20;;;;;;;-141.97;30.25;47225.03;5013700;28;20163;-83
2023/08/14 10:09:14;;;;;;;5.38;4.72;;;;;;;-141.97;30.69;47190.44;4998218;28;20181;-85
2023/08/14 10:11:42;;;;;;;5.78;5.18;;;;;;;-141.97;31.29;47253.84;4998542;28;20159;-82
2023/08/14 10:14:12;;;;;;;5.28;4.75;;;;;;;-141.97;30.37;47407.59;5011134;28;20178;-82
2023/08/14 10:16:40;;;;;;;4.80;4.40;;;;;;;-141.97;30.07;47469.09;5010989;28;20163;-81
2023/08/14 10:19:12;;;;;;;8.27;4.40;;;;;;;-141.97;30.22;47299.97;5018985;28;20166;-81
2023/08/14 10:21:39;;;;;;;7.53;4.30;;;;;;;-141.97;29.75;47226.94;5030035;28;20209;-82
2023/08/14 10:24:07;;;;;;;5.18;4.20;;;;;;;-141.97;29.71;47225.03;5016159;28;20605;-83
2023/08/14 10:26:33;;;;;;;5.78;4.47;;;;;;;-141.97;29.81;47228.88;5011247;28;20264;-83
2023/08/14 10:28:59;;;;;;;4.50;4.10;;;;;;;-141.97;29.29;47209.66;5010711;28;20179;-83
2023/08/14 10:31:30;;;;;;;4.97;4.40;;;;;;;-141.97;29.36;47203.88;4996701;28;20166;-82
2023/08/14 10:33:57;;;;;;;6.03;5.00;;;;;;;-141.97;29.07;47217.34;5014672;28;20170;-83
2023/08/14 10:36:26;;;;;;;5.80;4.30;;;;;;;-141.97;28.62;47213.50;5015294;28;20167;-83
2023/08/14 10:38:52;;;;;;;7.20;4.30;;;;;;;-141.97;29.10;47405.69;5013478;28;20174;-83
2023/08/14 10:41:18;;;;;;;4.80;4.40;;;;;;;-141.97;28.52;47211.56;5015832;28;20658;-84
2023/08/14 10:43:50;;;;;;;5.45;4.70;;;;;;;-141.97;29.80;47134.69;5005507;28;20250;-84
2023/08/14 10:46:16;;;;;;;5.55;4.55;;;;;;;-141.97;30.49;47250.00;5014649;28;20171;-84
2023/08/14 10:48:43;;;;;;;5.35;4.40;;;;;;;-141.97;30.40;47273.06;5014562;28;20264;-83
2023/08/14 10:51:10;;;;;;;5.82;4.35;;;;;;;-141.97;30.51;47242.31;5014675;28;20179;-83
2023/08/14 10:53:36;;;;;;;5.65;4.60;;;;;;;-141.97;30.09;47228.88;4997060;28;20654;-82
2023/08/14 10:56:04;;;;;;;4.90;4.45;;;;;;;-141.97;29.36;47207.72;5014198;28;20697;-83
2023/08/14 10:58:33;;;;;;;4.80;4.35;;;;;;;-141.97;29.63;47238.47;5014300;28;20253;-84
2023/08/14 11:01:05;;;;;;;5.30;4.80;;;;;;;-141.97;29.82;47163.53;5013934;28;20710;-83
2023/08/14 11:03:57;;;;;;;9.05;4.55;;;;;;;-141.97;29.63;47251.94;4996995;28;20178;-83
2023/08/14 11:06:27;;;;;;;6.57;4.40;;;;;;;-141.97;29.92;47242.31;5013936;28;20273;-83
2023/08/14 11:08:58;;;;;;;6.10;4.50;;;;;;;-141.97;29.53;47186.59;5013647;28;20201;-82